GPX5SA BKPR-EDDS

Flight info

Callsign GPX5SA
Flight time 1h 56m
Altitude 36000
Route KUKAD1D KUKAD DCT RETRA DCT KUSIB DCT OLEZE DCT KFT DCT RASTA DCT TITIG L173 DODIL T127 TEKSI TEKSI1W
Aircraft A319/M-SDE3FGHIRWY/LB1

Departure

Time 2026-04-07 17:32
Airport Priština Adem Jashari International Airport (BKPR)

Arrival

Time 2026-04-07 19:29
Airport Stuttgart Airport (EDDS)
Time Latitude Longitude Altitude Speed Heading
2026-04-07 16:59 42.57549 21.03129 1800 ft 0 kts 266°
2026-04-07 17:17 42.57549 21.03130 1799 ft 0 kts 266°
2026-04-07 17:18 42.57549 21.03135 1799 ft 2 kts 266°
2026-04-07 17:18 42.57550 21.03155 1799 ft 2 kts 266°
2026-04-07 17:18 42.57551 21.03176 1799 ft 2 kts 266°
2026-04-07 17:19 42.57552 21.03188 1799 ft 2 kts 266°
2026-04-07 17:19 42.57557 21.03207 1799 ft 2 kts 223°
2026-04-07 17:19 42.57570 21.03217 1799 ft 2 kts 187°
2026-04-07 17:19 42.57578 21.03217 1799 ft 1 kts 169°
2026-04-07 17:20 42.57582 21.03216 1799 ft 0 kts 175°
2026-04-07 17:22 42.57579 21.03218 1799 ft 0 kts 148°
2026-04-07 17:22 42.57582 21.03233 1799 ft 3 kts 61°
2026-04-07 17:22 42.57590 21.03281 1799 ft 6 kts 108°
2026-04-07 17:22 42.57542 21.03317 1799 ft 10 kts 174°
2026-04-07 17:23 42.57463 21.03326 1798 ft 12 kts 177°
2026-04-07 17:23 42.57396 21.03331 1797 ft 6 kts 176°
2026-04-07 17:23 42.57386 21.03332 1797 ft 0 kts 175°
2026-04-07 17:24 42.57381 21.03333 1797 ft 2 kts 175°
2026-04-07 17:24 42.57354 21.03336 1797 ft 5 kts 176°
2026-04-07 17:25 42.57306 21.03340 1797 ft 8 kts 177°
2026-04-07 17:25 42.57236 21.03347 1797 ft 11 kts 174°
2026-04-07 17:25 42.57147 21.03356 1797 ft 14 kts 175°
2026-04-07 17:25 42.57044 21.03367 1797 ft 15 kts 176°
2026-04-07 17:26 42.56929 21.03379 1798 ft 17 kts 175°
2026-04-07 17:26 42.56804 21.03392 1799 ft 17 kts 175°
2026-04-07 17:26 42.56682 21.03404 1800 ft 17 kts 176°
2026-04-07 17:26 42.56563 21.03418 1802 ft 16 kts 174°
2026-04-07 17:27 42.56446 21.03428 1803 ft 16 kts 176°
2026-04-07 17:27 42.56332 21.03438 1804 ft 16 kts 175°
2026-04-07 17:27 42.56215 21.03451 1806 ft 17 kts 176°
2026-04-07 17:27 42.56088 21.03465 1807 ft 18 kts 174°
2026-04-07 17:28 42.55956 21.03479 1808 ft 19 kts 176°
2026-04-07 17:28 42.55830 21.03496 1809 ft 16 kts 162°
2026-04-07 17:28 42.55809 21.03587 1809 ft 11 kts 86°
2026-04-07 17:28 42.55812 21.03696 1809 ft 9 kts 83°
2026-04-07 17:29 42.55843 21.03735 1809 ft 7 kts 350°
2026-04-07 17:29 42.55857 21.03733 1809 ft 0 kts 356°
2026-04-07 17:31 42.55924 21.03728 1808 ft 35 kts 356°
2026-04-07 17:32 42.56436 21.03674 1803 ft 108 kts 355°
2026-04-07 17:32 42.57397 21.03577 1828 ft 163 kts 355°
2026-04-07 17:32 42.58555 21.03485 2389 ft 169 kts 356°
2026-04-07 17:32 42.59699 21.03379 3191 ft 166 kts 355°
2026-04-07 17:33 42.60693 21.03269 3851 ft 166 kts 355°
2026-04-07 17:33 42.61462 21.03186 4344 ft 166 kts 354°
2026-04-07 17:33 42.62605 21.03064 5051 ft 167 kts 353°
2026-04-07 17:33 42.63718 21.02532 5570 ft 179 kts 319°
2026-04-07 17:34 42.64526 21.01189 6073 ft 194 kts 306°
2026-04-07 17:34 42.65338 20.99624 6509 ft 215 kts 306°
2026-04-07 17:34 42.66239 20.97902 7056 ft 233 kts 306°
2026-04-07 17:34 42.67200 20.96089 7802 ft 242 kts 306°
2026-04-07 17:35 42.68176 20.94259 8747 ft 243 kts 306°
2026-04-07 17:35 42.69096 20.92353 9643 ft 246 kts 295°
2026-04-07 17:35 42.69434 20.90026 10207 ft 266 kts 270°
2026-04-07 17:35 42.68904 20.87520 10752 ft 292 kts 246°
2026-04-07 17:36 42.67797 20.85145 11228 ft 311 kts 242°
2026-04-07 17:36 42.66566 20.82606 11645 ft 329 kts 242°
2026-04-07 17:36 42.65294 20.79979 12103 ft 344 kts 242°
2026-04-07 17:36 42.63967 20.77244 12831 ft 349 kts 242°
2026-04-07 17:37 42.62631 20.74489 13581 ft 353 kts 243°
2026-04-07 17:37 42.61279 20.71696 14322 ft 357 kts 243°
2026-04-07 17:37 42.59927 20.68893 15053 ft 360 kts 243°
2026-04-07 17:37 42.58546 20.66027 15740 ft 364 kts 242°
2026-04-07 17:38 42.57158 20.63151 16406 ft 368 kts 242°
2026-04-07 17:38 42.55754 20.60248 17091 ft 370 kts 242°
2026-04-07 17:38 42.54353 20.57352 17746 ft 373 kts 242°
2026-04-07 17:38 42.52926 20.54408 18368 ft 377 kts 242°
2026-04-07 17:39 42.51485 20.51434 18968 ft 380 kts 242°
2026-04-07 17:39 42.50022 20.48423 19546 ft 384 kts 242°
2026-04-07 17:39 42.48564 20.45421 20109 ft 387 kts 241°
2026-04-07 17:39 42.47087 20.42384 20666 ft 391 kts 241°
2026-04-07 17:40 42.45581 20.39294 21212 ft 394 kts 241°
2026-04-07 17:40 42.44071 20.36196 21727 ft 398 kts 241°
2026-04-07 17:40 42.42535 20.33045 22247 ft 401 kts 241°
2026-04-07 17:40 42.41009 20.29911 22750 ft 405 kts 240°
2026-04-07 17:41 42.39452 20.26719 23241 ft 408 kts 240°
2026-04-07 17:41 42.37889 20.23522 23717 ft 411 kts 240°
2026-04-07 17:41 42.36413 20.20208 24185 ft 412 kts 246°
2026-04-07 17:41 42.35284 20.16707 24655 ft 411 kts 254°
2026-04-07 17:42 42.34504 20.13003 25106 ft 410 kts 261°
2026-04-07 17:42 42.33943 20.09260 25552 ft 412 kts 262°
2026-04-07 17:42 42.33404 20.05431 25997 ft 415 kts 263°
2026-04-07 17:42 42.32862 20.01566 26413 ft 418 kts 263°
2026-04-07 17:43 42.32320 19.97740 26829 ft 421 kts 263°
2026-04-07 17:43 42.31760 19.93828 27259 ft 423 kts 263°
2026-04-07 17:43 42.31202 19.89955 27656 ft 426 kts 263°
2026-04-07 17:43 42.30633 19.86024 28044 ft 428 kts 263°
2026-04-07 17:44 42.30061 19.82095 28417 ft 431 kts 263°
2026-04-07 17:44 42.29479 19.78109 28774 ft 434 kts 263°
2026-04-07 17:44 42.28896 19.74124 29129 ft 436 kts 263°
2026-04-07 17:44 42.28305 19.70097 29484 ft 439 kts 262°
2026-04-07 17:45 42.27712 19.66089 29944 ft 438 kts 262°
2026-04-07 17:45 42.27113 19.62052 30459 ft 436 kts 263°
2026-04-07 17:45 42.26523 19.58082 30927 ft 435 kts 263°
2026-04-07 17:45 42.25933 19.54106 31338 ft 435 kts 263°
2026-04-07 17:46 42.25341 19.50136 31734 ft 435 kts 263°
2026-04-07 17:46 42.24937 19.46110 32146 ft 430 kts 271°
2026-04-07 17:46 42.25020 19.42110 32535 ft 425 kts 280°
2026-04-07 17:46 42.25571 19.38218 32895 ft 421 kts 289°
2026-04-07 17:47 42.26560 19.34526 33227 ft 419 kts 297°
2026-04-07 17:47 42.27945 19.31112 33558 ft 416 kts 305°
2026-04-07 17:47 42.29693 19.28042 33911 ft 414 kts 314°
2026-04-07 17:47 42.31768 19.25366 34266 ft 411 kts 322°
2026-04-07 17:48 42.34059 19.23090 34582 ft 411 kts 326°
2026-04-07 17:48 42.36403 19.20903 34846 ft 412 kts 326°
2026-04-07 17:48 42.38782 19.18706 35096 ft 414 kts 327°
2026-04-07 17:48 42.41166 19.16503 35364 ft 415 kts 326°
2026-04-07 17:49 42.43542 19.14302 35620 ft 416 kts 326°
2026-04-07 17:49 42.45911 19.12101 35842 ft 417 kts 326°
2026-04-07 17:49 42.48315 19.09864 36065 ft 418 kts 326°
2026-04-07 17:50 42.53088 19.05416 36138 ft 420 kts 326°
2026-04-07 17:50 42.57883 19.00934 36150 ft 420 kts 326°
2026-04-07 17:51 42.62674 18.96446 36154 ft 420 kts 326°
2026-04-07 17:51 42.67479 18.91935 36156 ft 420 kts 326°
2026-04-07 17:52 42.72271 18.87428 36161 ft 419 kts 326°
2026-04-07 17:52 42.77043 18.82931 36161 ft 419 kts 326°
2026-04-07 17:53 42.81819 18.78422 36162 ft 419 kts 326°
2026-04-07 17:53 42.89004 18.71623 36166 ft 419 kts 326°
2026-04-07 17:54 42.93745 18.67123 36166 ft 419 kts 326°
2026-04-07 17:54 42.98541 18.62562 36166 ft 419 kts 326°
2026-04-07 17:55 43.03285 18.58043 36161 ft 418 kts 326°
2026-04-07 17:55 43.08033 18.53513 36160 ft 417 kts 326°
2026-04-07 17:56 43.12833 18.48936 36159 ft 418 kts 326°
2026-04-07 17:56 43.17574 18.44419 36158 ft 418 kts 326°
2026-04-07 17:57 43.22346 18.39851 36158 ft 418 kts 326°
2026-04-07 17:57 43.27081 18.35302 36156 ft 417 kts 326°
2026-04-07 17:58 43.31816 18.30718 36152 ft 417 kts 325°
2026-04-07 17:58 43.36542 18.26135 36150 ft 417 kts 326°
2026-04-07 17:59 43.41297 18.21527 36147 ft 417 kts 326°
2026-04-07 17:59 43.46009 18.16958 36147 ft 417 kts 326°
2026-04-07 18:00 43.50736 18.12370 36149 ft 417 kts 326°
2026-04-07 18:00 43.55466 18.07770 36155 ft 417 kts 326°
2026-04-07 18:01 43.60199 18.03157 36155 ft 417 kts 326°
2026-04-07 18:01 43.64904 17.98562 36157 ft 417 kts 325°
2026-04-07 18:02 43.69622 17.93944 36155 ft 417 kts 325°
2026-04-07 18:02 43.74336 17.89321 36154 ft 416 kts 325°
2026-04-07 18:03 43.79057 17.84683 36156 ft 416 kts 325°
2026-04-07 18:03 43.83751 17.80062 36155 ft 417 kts 325°
2026-04-07 18:04 43.88473 17.75402 36160 ft 417 kts 325°
2026-04-07 18:04 43.93196 17.70735 36163 ft 417 kts 325°
2026-04-07 18:05 43.97907 17.66071 36165 ft 416 kts 325°
2026-04-07 18:05 44.02618 17.61396 36164 ft 417 kts 325°
2026-04-07 18:06 44.07315 17.56725 36161 ft 416 kts 325°
2026-04-07 18:06 44.12014 17.52051 36160 ft 416 kts 325°
2026-04-07 18:07 44.16744 17.47354 36162 ft 415 kts 326°
2026-04-07 18:07 44.21401 17.42710 36163 ft 414 kts 326°
2026-04-07 18:08 44.26090 17.38017 36162 ft 414 kts 325°
2026-04-07 18:08 44.30780 17.33304 36163 ft 415 kts 324°
2026-04-07 18:09 44.35437 17.28589 36166 ft 415 kts 324°
2026-04-07 18:09 44.40083 17.23891 36168 ft 414 kts 324°
2026-04-07 18:10 44.44762 17.19159 36164 ft 414 kts 325°
2026-04-07 18:10 44.49398 17.14464 36163 ft 414 kts 324°
2026-04-07 18:11 44.54086 17.09709 36159 ft 414 kts 324°
2026-04-07 18:11 44.58739 17.04977 36157 ft 414 kts 324°
2026-04-07 18:12 44.63359 17.00272 36149 ft 414 kts 324°
2026-04-07 18:12 44.68018 16.95515 36144 ft 413 kts 324°
2026-04-07 18:13 44.72671 16.90756 36141 ft 415 kts 324°
2026-04-07 18:13 44.77333 16.85979 36137 ft 414 kts 324°
2026-04-07 18:14 44.81956 16.81230 36135 ft 414 kts 324°
2026-04-07 18:14 44.86595 16.76455 36134 ft 414 kts 324°
2026-04-07 18:15 44.91223 16.71681 36127 ft 413 kts 324°
2026-04-07 18:15 44.95875 16.66876 36126 ft 413 kts 324°
2026-04-07 18:16 45.00472 16.62114 36123 ft 412 kts 324°
2026-04-07 18:16 45.05100 16.57305 36123 ft 412 kts 324°
2026-04-07 18:17 45.09700 16.52514 36122 ft 413 kts 325°
2026-04-07 18:17 45.14343 16.47676 36122 ft 413 kts 324°
2026-04-07 18:18 45.18799 16.42561 36121 ft 413 kts 322°
2026-04-07 18:18 45.23191 16.37375 36122 ft 413 kts 322°
2026-04-07 18:19 45.27604 16.32132 36122 ft 413 kts 321°
2026-04-07 18:19 45.32001 16.26878 36122 ft 413 kts 321°
2026-04-07 18:20 45.36380 16.21646 36121 ft 412 kts 321°
2026-04-07 18:20 45.40753 16.16419 36121 ft 412 kts 321°
2026-04-07 18:21 45.45131 16.11178 36117 ft 412 kts 321°
2026-04-07 18:21 45.49512 16.05925 36115 ft 413 kts 321°
2026-04-07 18:22 45.53918 16.00630 36117 ft 413 kts 321°
2026-04-07 18:22 45.58277 15.95380 36115 ft 413 kts 321°
2026-04-07 18:23 45.62667 15.90082 36115 ft 413 kts 321°
2026-04-07 18:23 45.67031 15.84802 36116 ft 413 kts 321°
2026-04-07 18:24 45.71412 15.79492 36118 ft 413 kts 321°
2026-04-07 18:24 45.75773 15.74197 36118 ft 413 kts 321°
2026-04-07 18:25 45.80109 15.68919 36123 ft 413 kts 321°
2026-04-07 18:25 45.84479 15.63585 36126 ft 412 kts 321°
2026-04-07 18:26 45.88827 15.58268 36127 ft 413 kts 321°
2026-04-07 18:26 45.93190 15.52919 36124 ft 412 kts 321°
2026-04-07 18:27 45.97527 15.47592 36123 ft 412 kts 321°
2026-04-07 18:27 46.01883 15.42222 36126 ft 412 kts 321°
2026-04-07 18:28 46.06210 15.36877 36129 ft 412 kts 321°
2026-04-07 18:28 46.10531 15.31396 36133 ft 412 kts 318°
2026-04-07 18:29 46.14573 15.25496 36132 ft 413 kts 315°
2026-04-07 18:29 46.18546 15.19497 36133 ft 413 kts 315°
2026-04-07 18:30 46.22492 15.13513 36134 ft 414 kts 315°
2026-04-07 18:30 46.26436 15.07521 36136 ft 413 kts 315°
2026-04-07 18:31 46.30385 15.01502 36140 ft 413 kts 315°
2026-04-07 18:31 46.34322 14.95490 36146 ft 413 kts 316°
2026-04-07 18:32 46.38258 14.89463 36159 ft 413 kts 315°
2026-04-07 18:32 46.42200 14.83411 36168 ft 413 kts 316°
2026-04-07 18:33 46.46124 14.77373 36179 ft 413 kts 316°
2026-04-07 18:33 46.50034 14.71341 36189 ft 412 kts 316°
2026-04-07 18:34 46.53962 14.65261 36189 ft 413 kts 316°
2026-04-07 18:34 46.57863 14.59217 36187 ft 412 kts 316°
2026-04-07 18:35 46.61974 14.53457 36188 ft 411 kts 320°
2026-04-07 18:35 46.66242 14.47961 36187 ft 410 kts 321°
2026-04-07 18:36 46.70510 14.42471 36186 ft 410 kts 321°
2026-04-07 18:36 46.74764 14.36976 36181 ft 409 kts 321°
2026-04-07 18:37 46.79025 14.31439 36186 ft 410 kts 320°
2026-04-07 18:37 46.83276 14.25892 36189 ft 410 kts 320°
2026-04-07 18:38 46.87516 14.20362 36196 ft 409 kts 320°
2026-04-07 18:38 46.91753 14.14828 36209 ft 409 kts 320°
2026-04-07 18:39 46.95988 14.09291 36207 ft 408 kts 320°
2026-04-07 18:39 47.00210 14.03756 36214 ft 408 kts 320°
2026-04-07 18:40 47.04419 13.98226 36214 ft 408 kts 320°
2026-04-07 18:40 47.08629 13.92686 36211 ft 408 kts 320°
2026-04-07 18:41 47.12880 13.87095 36210 ft 408 kts 321°
2026-04-07 18:41 47.17122 13.81514 36214 ft 409 kts 321°
2026-04-07 18:42 47.21354 13.75917 36212 ft 409 kts 320°
2026-04-07 18:42 47.25550 13.70345 36219 ft 408 kts 320°
2026-04-07 18:43 47.29757 13.64743 36226 ft 408 kts 320°
2026-04-07 18:43 47.33980 13.59104 36234 ft 409 kts 320°
2026-04-07 18:44 47.38166 13.53499 36242 ft 409 kts 320°
2026-04-07 18:44 47.42361 13.47865 36250 ft 409 kts 320°
2026-04-07 18:45 47.44463 13.45035 35935 ft 407 kts 320°
2026-04-07 18:45 47.46544 13.42230 35582 ft 406 kts 321°
2026-04-07 18:45 47.48629 13.39422 35231 ft 407 kts 320°
2026-04-07 18:45 47.50705 13.36588 34885 ft 409 kts 319°
2026-04-07 18:46 47.52741 13.33688 34537 ft 410 kts 318°
2026-04-07 18:46 47.54813 13.30685 34203 ft 412 kts 318°
2026-04-07 18:46 47.56837 13.27747 33879 ft 412 kts 318°
2026-04-07 18:46 47.58892 13.24766 33561 ft 413 kts 318°
2026-04-07 18:47 47.60946 13.21786 33242 ft 413 kts 318°
2026-04-07 18:47 47.62995 13.18817 32930 ft 414 kts 318°
2026-04-07 18:47 47.65040 13.15852 32613 ft 416 kts 318°
2026-04-07 18:47 47.67104 13.12859 32297 ft 417 kts 318°
2026-04-07 18:48 47.69187 13.09833 31976 ft 417 kts 318°
2026-04-07 18:48 47.71259 13.06821 31659 ft 418 kts 318°
2026-04-07 18:48 47.73319 13.03824 31346 ft 419 kts 318°
2026-04-07 18:48 47.75412 13.00775 31025 ft 420 kts 318°
2026-04-07 18:49 47.77486 12.97749 30710 ft 421 kts 318°
2026-04-07 18:49 47.79588 12.94679 30394 ft 421 kts 318°
2026-04-07 18:49 47.81668 12.91637 30275 ft 422 kts 318°
2026-04-07 18:49 47.83752 12.88587 30269 ft 422 kts 318°
2026-04-07 18:50 47.87923 12.82470 30267 ft 422 kts 318°
2026-04-07 18:50 47.92109 12.76312 30267 ft 422 kts 318°
2026-04-07 18:51 47.96252 12.70202 30268 ft 422 kts 318°
2026-04-07 18:51 48.00413 12.64048 30270 ft 421 kts 318°
2026-04-07 18:52 48.04392 12.57655 30266 ft 424 kts 310°
2026-04-07 18:52 48.07307 12.49881 30116 ft 433 kts 296°
2026-04-07 18:53 48.08356 12.45670 29801 ft 436 kts 294°
2026-04-07 18:53 48.09355 12.41402 29488 ft 437 kts 294°
2026-04-07 18:53 48.10340 12.37158 29183 ft 435 kts 294°
2026-04-07 18:53 48.11346 12.32871 28867 ft 432 kts 293°
2026-04-07 18:54 48.12355 12.28571 28552 ft 431 kts 293°
2026-04-07 18:54 48.13356 12.24299 28306 ft 428 kts 294°
2026-04-07 18:54 48.15566 12.16051 28272 ft 428 kts 296°
2026-04-07 18:55 48.17820 12.07813 28270 ft 428 kts 296°
2026-04-07 18:55 48.20032 11.99581 28269 ft 428 kts 296°
2026-04-07 18:56 48.22239 11.91285 28268 ft 428 kts 296°
2026-04-07 18:56 48.24413 11.83063 27914 ft 426 kts 296°
2026-04-07 18:57 48.25495 11.78952 27528 ft 423 kts 295°
2026-04-07 18:57 48.26576 11.74840 27139 ft 421 kts 296°
2026-04-07 18:57 48.27629 11.70825 26755 ft 418 kts 295°
2026-04-07 18:57 48.28695 11.66754 26363 ft 417 kts 295°
2026-04-07 18:58 48.29746 11.62735 25983 ft 415 kts 295°
2026-04-07 18:58 48.30793 11.58722 25595 ft 413 kts 295°
2026-04-07 18:58 48.31834 11.54724 25209 ft 411 kts 295°
2026-04-07 18:58 48.32876 11.50716 24779 ft 409 kts 295°
2026-04-07 18:59 48.33893 11.46796 24298 ft 406 kts 295°
2026-04-07 18:59 48.34906 11.42887 23819 ft 403 kts 295°
2026-04-07 18:59 48.35921 11.38967 23327 ft 401 kts 295°
2026-04-07 18:59 48.36926 11.35068 22832 ft 398 kts 295°
2026-04-07 19:00 48.37921 11.31194 22341 ft 396 kts 294°
2026-04-07 19:00 48.38900 11.27372 21861 ft 393 kts 294°
2026-04-07 19:00 48.39877 11.23553 21352 ft 390 kts 294°
2026-04-07 19:00 48.40847 11.19764 20880 ft 387 kts 294°
2026-04-07 19:01 48.41818 11.15966 20374 ft 384 kts 294°
2026-04-07 19:01 48.42772 11.12232 19885 ft 382 kts 294°
2026-04-07 19:01 48.44653 11.04856 18932 ft 377 kts 294°
2026-04-07 19:02 48.45584 11.01190 18449 ft 374 kts 294°
2026-04-07 19:02 48.46518 10.97511 18014 ft 372 kts 294°
2026-04-07 19:02 48.47428 10.93927 17615 ft 370 kts 294°
2026-04-07 19:02 48.48342 10.90317 17207 ft 369 kts 294°
2026-04-07 19:03 48.49249 10.86733 16812 ft 367 kts 294°
2026-04-07 19:03 48.50161 10.83119 16404 ft 365 kts 294°
2026-04-07 19:03 48.51062 10.79545 16011 ft 363 kts 294°
2026-04-07 19:03 48.51884 10.76275 15655 ft 362 kts 294°
2026-04-07 19:04 48.52768 10.72755 15264 ft 360 kts 294°
2026-04-07 19:04 48.53650 10.69237 14898 ft 358 kts 294°
2026-04-07 19:04 48.54523 10.65753 14510 ft 357 kts 294°
2026-04-07 19:04 48.55401 10.62244 14112 ft 356 kts 294°
2026-04-07 19:05 48.56267 10.58777 13723 ft 354 kts 294°
2026-04-07 19:05 48.57127 10.55326 13321 ft 352 kts 294°
2026-04-07 19:05 48.57995 10.51844 12935 ft 351 kts 294°
2026-04-07 19:05 48.58844 10.48425 12544 ft 350 kts 294°
2026-04-07 19:06 48.59696 10.44987 12148 ft 347 kts 294°
2026-04-07 19:06 48.60532 10.41610 11754 ft 345 kts 294°
2026-04-07 19:06 48.61367 10.38228 11386 ft 343 kts 294°
2026-04-07 19:06 48.62173 10.34962 11283 ft 343 kts 293°
2026-04-07 19:07 48.63043 10.31424 11276 ft 344 kts 292°
2026-04-07 19:07 48.63790 10.28373 11273 ft 345 kts 292°
2026-04-07 19:07 48.63823 10.28237 11273 ft 345 kts 292°
2026-04-07 19:08 48.65020 10.23329 11267 ft 320 kts 293°
2026-04-07 19:08 48.65766 10.20261 11269 ft 301 kts 293°
2026-04-07 19:08 48.66474 10.17356 11271 ft 288 kts 293°
2026-04-07 19:09 48.67167 10.14529 11271 ft 288 kts 294°
2026-04-07 19:09 48.67862 10.11697 11269 ft 287 kts 293°
2026-04-07 19:09 48.68549 10.08860 11268 ft 288 kts 291°
2026-04-07 19:09 48.69081 10.05943 11266 ft 290 kts 285°
2026-04-07 19:10 48.69405 10.02889 11266 ft 292 kts 281°
2026-04-07 19:10 48.69660 9.99831 11267 ft 292 kts 280°
2026-04-07 19:10 48.69901 9.96804 11271 ft 292 kts 280°
2026-04-07 19:10 48.70146 9.93743 11271 ft 292 kts 280°
2026-04-07 19:11 48.70392 9.90693 11273 ft 293 kts 280°
2026-04-07 19:11 48.70635 9.87671 11276 ft 293 kts 280°
2026-04-07 19:11 48.70882 9.84605 11277 ft 292 kts 280°
2026-04-07 19:11 48.71177 9.80949 11274 ft 292 kts 281°
2026-04-07 19:12 48.71423 9.77875 11273 ft 292 kts 281°
2026-04-07 19:12 48.71671 9.74840 11269 ft 292 kts 282°
2026-04-07 19:12 48.72315 9.71972 11193 ft 282 kts 305°
2026-04-07 19:12 48.73579 9.69802 10824 ft 276 kts 321°
2026-04-07 19:13 48.75044 9.67946 10404 ft 276 kts 324°
2026-04-07 19:13 48.76569 9.66127 9931 ft 277 kts 324°
2026-04-07 19:13 48.78075 9.64362 9519 ft 277 kts 324°
2026-04-07 19:13 48.79587 9.62604 9216 ft 272 kts 324°
2026-04-07 19:14 48.81062 9.60889 9047 ft 262 kts 324°
2026-04-07 19:14 48.82484 9.59234 8850 ft 252 kts 324°
2026-04-07 19:14 48.83833 9.57662 8582 ft 237 kts 324°
2026-04-07 19:14 48.85100 9.56186 8324 ft 223 kts 324°
2026-04-07 19:15 48.86390 9.54973 8063 ft 216 kts 345°
2026-04-07 19:15 48.87848 9.54943 7794 ft 213 kts 19°
2026-04-07 19:15 48.89035 9.56220 7513 ft 214 kts 54°
2026-04-07 19:15 48.89497 9.58360 7296 ft 217 kts 90°
2026-04-07 19:16 48.89250 9.60658 7296 ft 224 kts 102°
2026-04-07 19:16 48.88833 9.62945 7289 ft 225 kts 104°
2026-04-07 19:16 48.88386 9.65241 7284 ft 226 kts 104°
2026-04-07 19:16 48.87941 9.67508 7281 ft 226 kts 105°
2026-04-07 19:17 48.87492 9.69802 7281 ft 227 kts 104°
2026-04-07 19:17 48.87046 9.72087 7282 ft 227 kts 104°
2026-04-07 19:17 48.86596 9.74381 7283 ft 227 kts 104°
2026-04-07 19:17 48.86145 9.76672 7283 ft 226 kts 104°
2026-04-07 19:18 48.85691 9.78960 7282 ft 227 kts 104°
2026-04-07 19:18 48.85230 9.81270 7283 ft 227 kts 104°
2026-04-07 19:18 48.84772 9.83554 7281 ft 227 kts 104°
2026-04-07 19:18 48.84316 9.85830 7280 ft 227 kts 104°
2026-04-07 19:19 48.83857 9.88119 7278 ft 227 kts 105°
2026-04-07 19:19 48.83169 9.90258 7262 ft 229 kts 131°
2026-04-07 19:19 48.81851 9.91548 7268 ft 230 kts 166°
2026-04-07 19:19 48.80277 9.91551 7272 ft 228 kts 200°
2026-04-07 19:20 48.78976 9.90286 7275 ft 223 kts 232°
2026-04-07 19:20 48.78093 9.88350 7282 ft 224 kts 242°
2026-04-07 19:20 48.77319 9.86278 7278 ft 225 kts 244°
2026-04-07 19:20 48.76567 9.84193 7273 ft 225 kts 244°
2026-04-07 19:21 48.75820 9.82114 7273 ft 226 kts 244°
2026-04-07 19:21 48.75077 9.80034 7273 ft 226 kts 244°
2026-04-07 19:21 48.74538 9.77846 7209 ft 218 kts 265°
2026-04-07 19:21 48.74441 9.75586 6943 ft 217 kts 272°
2026-04-07 19:22 48.74460 9.73303 6630 ft 218 kts 274°
2026-04-07 19:22 48.74503 9.71021 6341 ft 217 kts 274°
2026-04-07 19:22 48.74551 9.68730 6049 ft 217 kts 274°
2026-04-07 19:22 48.74601 9.66470 5748 ft 217 kts 274°
2026-04-07 19:23 48.74654 9.64189 5449 ft 217 kts 274°
2026-04-07 19:23 48.74709 9.61900 5154 ft 217 kts 274°
2026-04-07 19:23 48.74768 9.59587 5018 ft 217 kts 274°
2026-04-07 19:23 48.74833 9.57325 5014 ft 218 kts 275°
2026-04-07 19:24 48.74875 9.55639 4997 ft 210 kts 271°
2026-04-07 19:24 48.74749 9.53443 4961 ft 210 kts 262°
2026-04-07 19:24 48.74461 9.51262 4751 ft 210 kts 259°
2026-04-07 19:24 48.74117 9.49122 4470 ft 211 kts 257°
2026-04-07 19:25 48.73729 9.46977 4187 ft 211 kts 256°
2026-04-07 19:25 48.73324 9.44862 3989 ft 205 kts 255°
2026-04-07 19:25 48.72929 9.42822 3699 ft 202 kts 255°
2026-04-07 19:25 48.72537 9.40798 3411 ft 199 kts 255°
2026-04-07 19:26 48.72155 9.38818 3129 ft 192 kts 255°
2026-04-07 19:26 48.71798 9.36953 2882 ft 178 kts 255°
2026-04-07 19:26 48.71464 9.35211 2638 ft 168 kts 256°
2026-04-07 19:26 48.71150 9.33565 2420 ft 156 kts 255°
2026-04-07 19:27 48.70860 9.32041 2193 ft 144 kts 256°
2026-04-07 19:27 48.70588 9.30619 2000 ft 137 kts 256°
2026-04-07 19:27 48.70327 9.29250 1830 ft 135 kts 256°
2026-04-07 19:27 48.70067 9.27893 1663 ft 133 kts 256°
2026-04-07 19:28 48.69814 9.26570 1487 ft 131 kts 256°
2026-04-07 19:28 48.69559 9.25251 1342 ft 130 kts 257°
2026-04-07 19:28 48.69316 9.23952 1218 ft 128 kts 257°
2026-04-07 19:28 48.69091 9.22744 1219 ft 104 kts 253°
2026-04-07 19:29 48.68916 9.21817 1238 ft 81 kts 254°
2026-04-07 19:29 48.68774 9.21092 1262 ft 66 kts 254°
2026-04-07 19:29 48.68681 9.20584 1275 ft 36 kts 261°
2026-04-07 19:29 48.68684 9.20297 1282 ft 21 kts 279°
2026-04-07 19:30 48.68706 9.20165 1287 ft 0 kts 285°
2026-04-07 19:30 48.68706 9.20166 1287 ft 0 kts 285°
2026-04-07 19:30 48.68705 9.20169 1286 ft 0 kts 285°
2026-04-07 19:30 48.68704 9.20176 1286 ft 0 kts 285°
2026-04-07 19:31 48.68703 9.20181 1286 ft 0 kts 285°
2026-04-07 19:31 48.68708 9.20157 1287 ft 5 kts 286°
2026-04-07 19:31 48.68720 9.20097 1289 ft 6 kts 289°
2026-04-07 19:31 48.68744 9.20035 1290 ft 8 kts 307°
2026-04-07 19:32 48.68772 9.19955 1292 ft 9 kts 268°
2026-04-07 19:32 48.68755 9.19848 1294 ft 11 kts 254°
2026-04-07 19:32 48.68731 9.19720 1297 ft 13 kts 252°
2026-04-07 19:32 48.68704 9.19587 1301 ft 13 kts 253°
2026-04-07 19:33 48.68678 9.19448 1305 ft 14 kts 254°
2026-04-07 19:33 48.68651 9.19305 1309 ft 13 kts 254°
2026-04-07 19:33 48.68650 9.19200 1310 ft 7 kts 305°
2026-04-07 19:33 48.68693 9.19164 1312 ft 6 kts 343°
2026-04-07 19:34 48.68706 9.19159 1312 ft 0 kts 343°
2026-04-07 19:34 48.68718 9.19155 1312 ft 3 kts 353°
2026-04-07 19:34 48.68754 9.19170 1313 ft 7 kts 40°
2026-04-07 19:35 48.68781 9.19275 1311 ft 13 kts 74°
2026-04-07 19:35 48.68810 9.19422 1309 ft 16 kts 73°
2026-04-07 19:35 48.68840 9.19571 1304 ft 7 kts 75°
2026-04-07 19:35 48.68827 9.19610 1303 ft 5 kts 172°
2026-04-07 19:36 48.68790 9.19625 1301 ft 1 kts 162°
2026-04-07 19:36 48.68777 9.19631 1301 ft 0 kts 163°